Time;durP1;ratioP1;P1;durP2;ratioP2;P2;SDS_P1;SDS_P2;PMS_P1;PMS_P2;Temp;Humidity;BMP_temperature;BMP_pressure;BME280_temperature;BME280_humidity;BME280_pressure;Samples;Min_cycle;Max_cycle;Signal;HPM_P1;HPM_P2
2022/08/01 00:01:17;;;;;;;0.25;0.25;;;;;;;;;;5066325;28;20080;-69
2022/08/01 00:03:46;;;;;;;1.02;0.68;;;;;;;;;;5060320;28;20128;-69
2022/08/01 00:06:14;;;;;;;0.40;0.30;;;;;;;;;;5075654;28;20158;-68
2022/08/01 00:08:42;;;;;;;1.10;0.85;;;;;;;;;;5079734;28;20654;-70
2022/08/01 00:11:11;;;;;;;0.52;0.50;;;;;;;;;;5076835;28;20163;-68
2022/08/01 00:13:39;;;;;;;0.63;0.47;;;;;;;;;;5074062;28;20136;-69
2022/08/01 00:16:09;;;;;;;0.68;0.60;;;;;;;;;;5077969;28;20503;-70
2022/08/01 00:18:37;;;;;;;0.40;0.40;;;;;;;;;;5077097;28;20080;-68
2022/08/01 00:21:05;;;;;;;0.35;0.35;;;;;;;;;;5077599;28;20047;-68
2022/08/01 00:23:34;;;;;;;0.45;0.45;;;;;;;;;;5082916;28;20131;-68
2022/08/01 00:26:05;;;;;;;1.45;0.70;;;;;;;;;;5078693;28;20138;-68
2022/08/01 00:28:34;;;;;;;0.85;0.57;;;;;;;;;;5077697;28;20131;-69
2022/08/01 00:31:05;;;;;;;0.65;0.38;;;;;;;;;;5073551;28;20141;-68
2022/08/01 00:33:35;;;;;;;0.32;0.30;;;;;;;;;;5073811;28;20077;-70
2022/08/01 00:36:06;;;;;;;0.55;0.43;;;;;;;;;;5075448;28;20054;-68
2022/08/01 00:38:34;;;;;;;0.70;0.43;;;;;;;;;;5075505;28;20654;-68
2022/08/01 00:41:06;;;;;;;0.50;0.43;;;;;;;;;;5075925;28;20143;-68
2022/08/01 00:43:34;;;;;;;0.43;0.43;;;;;;;;;;5076631;28;20047;-68
2022/08/01 00:46:05;;;;;;;1.20;0.65;;;;;;;;;;5079025;28;20703;-68
2022/08/01 00:48:35;;;;;;;0.60;0.57;;;;;;;;;;5083237;28;20135;-68
2022/08/01 00:51:06;;;;;;;5.35;0.50;;;;;;;;;;5080885;28;20145;-69
2022/08/01 00:53:35;;;;;;;0.68;0.40;;;;;;;;;;5082450;28;20050;-69
2022/08/01 00:56:20;;;;;;;1.25;0.50;;;;;;;;;;5078340;28;20555;-68
2022/08/01 00:58:48;;;;;;;1.33;0.52;;;;;;;;;;5080609;28;20143;-69
2022/08/01 01:01:17;;;;;;;0.30;0.30;;;;;;;;;;5079714;28;20408;-69
2022/08/01 01:03:47;;;;;;;0.82;0.73;;;;;;;;;;5078672;28;20136;-68
2022/08/01 01:06:42;;;;;;;0.70;0.47;;;;;;;;;;5080011;28;20333;-69
2022/08/01 01:09:18;;;;;;;0.82;0.55;;;;;;;;;;5080358;28;20083;-69
2022/08/01 01:11:50;;;;;;;0.85;0.73;;;;;;;;;;5080153;28;20174;-68
2022/08/01 01:14:29;;;;;;;0.43;0.40;;;;;;;;;;5083094;28;20139;-68
2022/08/01 01:16:59;;;;;;;0.60;0.52;;;;;;;;;;5077870;28;20477;-69
2022/08/01 01:19:31;;;;;;;1.05;0.70;;;;;;;;;;5077057;28;20360;-69
2022/08/01 01:22:19;;;;;;;0.40;0.40;;;;;;;;;;5084253;28;20087;-69
2022/08/01 01:24:50;;;;;;;0.60;0.50;;;;;;;;;;5082468;28;20084;-69
2022/08/01 01:27:23;;;;;;;0.80;0.65;;;;;;;;;;5075934;28;20056;-68
2022/08/01 01:29:54;;;;;;;0.45;0.45;;;;;;;;;;5085110;28;20127;-69
2022/08/01 01:32:33;;;;;;;0.80;0.50;;;;;;;;;;5076743;28;20040;-69
2022/08/01 01:35:03;;;;;;;2.45;0.73;;;;;;;;;;5076280;28;20044;-69
2022/08/01 01:37:33;;;;;;;0.65;0.45;;;;;;;;;;5064719;28;20044;-69
2022/08/01 01:40:03;;;;;;;0.35;0.35;;;;;;;;;;5062931;28;20064;-69
2022/08/01 01:42:32;;;;;;;0.20;0.20;;;;;;;;;;5059428;28;20041;-70
2022/08/01 01:45:02;;;;;;;0.40;0.40;;;;;;;;;;5067886;28;20127;-68
2022/08/01 01:47:31;;;;;;;0.73;0.47;;;;;;;;;;5094018;28;20353;-68
2022/08/01 01:50:00;;;;;;;0.70;0.50;;;;;;;;;;5081474;28;20135;-68
2022/08/01 01:52:29;;;;;;;1.42;0.60;;;;;;;;;;5081962;28;20131;-68
2022/08/01 01:54:58;;;;;;;0.70;0.35;;;;;;;;;;5078626;28;20293;-69
2022/08/01 01:57:27;;;;;;;1.80;0.60;;;;;;;;;;5058754;28;20091;-68
2022/08/01 01:59:57;;;;;;;0.80;0.60;;;;;;;;;;5059792;28;20143;-68
2022/08/01 02:02:27;;;;;;;8.82;0.50;;;;;;;;;;5060794;28;20135;-68
2022/08/01 02:04:55;;;;;;;0.52;0.50;;;;;;;;;;5065956;28;20044;-69
2022/08/01 02:07:25;;;;;;;0.30;0.30;;;;;;;;;;5081336;28;20156;-68
2022/08/01 02:09:54;;;;;;;0.28;0.28;;;;;;;;;;5082187;28;20492;-69
2022/08/01 02:12:22;;;;;;;0.43;0.43;;;;;;;;;;5086503;28;20083;-69
2022/08/01 02:14:52;;;;;;;0.40;0.40;;;;;;;;;;5076067;28;20047;-69
2022/08/01 02:17:20;;;;;;;1.05;0.50;;;;;;;;;;5077069;28;20080;-68
2022/08/01 02:19:50;;;;;;;1.05;0.40;;;;;;;;;;5082570;28;20048;-70
2022/08/01 02:22:21;;;;;;;0.50;0.50;;;;;;;;;;5085047;28;20135;-68
2022/08/01 02:24:51;;;;;;;0.80;0.50;;;;;;;;;;5077070;28;20134;-69
2022/08/01 02:27:24;;;;;;;2.50;0.68;;;;;;;;;;5080201;28;20075;-68
2022/08/01 02:29:54;;;;;;;0.50;0.35;;;;;;;;;;5077778;28;20519;-73
2022/08/01 02:32:25;;;;;;;1.23;0.47;;;;;;;;;;5073579;28;20551;-69
2022/08/01 02:34:57;;;;;;;0.77;0.60;;;;;;;;;;5077955;28;20068;-68
2022/08/01 02:37:28;;;;;;;0.75;0.75;;;;;;;;;;5079325;28;20067;-70
2022/08/01 02:39:56;;;;;;;0.40;0.30;;;;;;;;;;5074827;28;20300;-68
2022/08/01 02:42:27;;;;;;;0.45;0.40;;;;;;;;;;5074415;28;20560;-68
2022/08/01 02:44:56;;;;;;;0.80;0.50;;;;;;;;;;5073824;28;20483;-68
2022/08/01 02:47:25;;;;;;;0.20;0.20;;;;;;;;;;5079962;28;20389;-68
2022/08/01 02:49:55;;;;;;;0.63;0.47;;;;;;;;;;5077560;28;20075;-69
2022/08/01 02:52:25;;;;;;;0.65;0.50;;;;;;;;;;5081337;28;20051;-69
2022/08/01 02:54:56;;;;;;;1.38;0.65;;;;;;;;;;5078287;28;20142;-68
2022/08/01 02:57:25;;;;;;;1.17;0.73;;;;;;;;;;5078158;28;20128;-68
2022/08/01 03:00:15;;;;;;;0.95;0.50;;;;;;;;;;5076342;28;20044;-69
2022/08/01 03:02:44;;;;;;;0.35;0.32;;;;;;;;;;5073289;28;20131;-69
2022/08/01 03:05:14;;;;;;;0.50;0.43;;;;;;;;;;5074534;28;20040;-69
2022/08/01 03:07:43;;;;;;;1.02;0.40;;;;;;;;;;5075644;28;20151;-68
2022/08/01 03:10:16;;;;;;;0.43;0.32;;;;;;;;;;5073467;28;20049;-68
2022/08/01 03:12:46;;;;;;;0.10;0.10;;;;;;;;;;5079534;28;20036;-68
2022/08/01 03:15:16;;;;;;;0.85;0.50;;;;;;;;;;5079132;28;20582;-69
2022/08/01 03:17:45;;;;;;;1.27;0.30;;;;;;;;;;5075737;28;20479;-69
2022/08/01 03:20:17;;;;;;;0.35;0.30;;;;;;;;;;5073284;28;20502;-68
2022/08/01 03:22:46;;;;;;;0.90;0.40;;;;;;;;;;5077544;28;20083;-68
2022/08/01 03:25:15;;;;;;;0.38;0.38;;;;;;;;;;5076090;28;20044;-68
2022/08/01 03:27:44;;;;;;;0.52;0.40;;;;;;;;;;5064837;28;20095;-68
2022/08/01 03:30:15;;;;;;;0.85;0.68;;;;;;;;;;5060775;28;20132;-68
2022/08/01 03:32:43;;;;;;;1.33;0.60;;;;;;;;;;5061064;28;20053;-68
2022/08/01 03:35:12;;;;;;;0.55;0.47;;;;;;;;;;5066091;28;20422;-68
2022/08/01 03:37:43;;;;;;;1.17;0.57;;;;;;;;;;5062617;28;20036;-68
2022/08/01 03:40:33;;;;;;;0.43;0.40;;;;;;;;;;5065911;28;20048;-68
2022/08/01 03:43:04;;;;;;;0.30;0.28;;;;;;;;;;5057705;28;20162;-68
2022/08/01 03:45:36;;;;;;;0.38;0.25;;;;;;;;;;5071135;28;20052;-68
2022/08/01 03:48:07;;;;;;;0.43;0.43;;;;;;;;;;5075256;28;20058;-68
2022/08/01 03:50:35;;;;;;;0.35;0.30;;;;;;;;;;5080304;28;20088;-70
2022/08/01 03:53:06;;;;;;;0.57;0.50;;;;;;;;;;5080779;28;20036;-68
2022/08/01 03:55:37;;;;;;;0.47;0.47;;;;;;;;;;5066953;28;20120;-69
2022/08/01 03:58:06;;;;;;;0.73;0.50;;;;;;;;;;5060527;28;20055;-68
2022/08/01 04:00:39;;;;;;;0.63;0.55;;;;;;;;;;5057236;28;20563;-68
2022/08/01 04:03:08;;;;;;;1.15;0.50;;;;;;;;;;5054955;28;20115;-68
2022/08/01 04:05:36;;;;;;;0.30;0.30;;;;;;;;;;5071615;28;20075;-68
2022/08/01 04:08:06;;;;;;;0.30;0.30;;;;;;;;;;5076384;28;20124;-68
2022/08/01 04:10:35;;;;;;;0.20;0.20;;;;;;;;;;5085112;28;20052;-67
2022/08/01 04:13:03;;;;;;;0.55;0.50;;;;;;;;;;5082062;28;20151;-69
2022/08/01 04:15:31;;;;;;;0.22;0.22;;;;;;;;;;5070942;28;20147;-68
2022/08/01 04:18:00;;;;;;;0.45;0.45;;;;;;;;;;5083035;28;20040;-68
2022/08/01 04:20:28;;;;;;;0.68;0.47;;;;;;;;;;5086236;28;20098;-68
2022/08/01 04:22:57;;;;;;;0.85;0.30;;;;;;;;;;5091082;28;20182;-68
2022/08/01 04:25:29;;;;;;;0.40;0.30;;;;;;;;;;5082065;28;20078;-68
2022/08/01 04:27:58;;;;;;;1.30;0.40;;;;;;;;;;5087955;28;20040;-68
2022/08/01 04:30:29;;;;;;;0.73;0.50;;;;;;;;;;5088708;28;20531;-69
2022/08/01 04:32:59;;;;;;;0.20;0.20;;;;;;;;;;5086786;28;20128;-69
2022/08/01 04:35:28;;;;;;;0.32;0.32;;;;;;;;;;5080444;28;20507;-68
2022/08/01 04:38:19;;;;;;;0.35;0.35;;;;;;;;;;5081917;28;20392;-69
2022/08/01 04:40:50;;;;;;;0.32;0.32;;;;;;;;;;5087660;28;20082;-69
2022/08/01 04:43:19;;;;;;;0.43;0.40;;;;;;;;;;5085881;28;20083;-69
2022/08/01 04:45:48;;;;;;;0.38;0.38;;;;;;;;;;5082136;28;20040;-69
2022/08/01 04:48:19;;;;;;;0.38;0.32;;;;;;;;;;5073474;28;20419;-69
2022/08/01 04:50:50;;;;;;;0.77;0.43;;;;;;;;;;5074896;28;20054;-70
2022/08/01 04:53:21;;;;;;;0.40;0.28;;;;;;;;;;5082520;28;20068;-68
2022/08/01 04:55:51;;;;;;;1.02;0.85;;;;;;;;;;5078044;28;20056;-68
2022/08/01 04:58:20;;;;;;;0.60;0.52;;;;;;;;;;5078490;28;20052;-68
2022/08/01 05:00:48;;;;;;;0.52;0.45;;;;;;;;;;5081602;28;20436;-69
2022/08/01 05:03:16;;;;;;;0.45;0.32;;;;;;;;;;5083033;28;20054;-70
2022/08/01 05:05:45;;;;;;;0.38;0.32;;;;;;;;;;5073264;28;20068;-68
2022/08/01 05:08:13;;;;;;;2.17;1.02;;;;;;;;;;5070822;28;20052;-69
2022/08/01 05:10:41;;;;;;;4.13;0.98;;;;;;;;;;5070348;28;20066;-69
2022/08/01 05:13:11;;;;;;;0.50;0.38;;;;;;;;;;5073450;28;20427;-68
2022/08/01 05:15:40;;;;;;;1.05;0.63;;;;;;;;;;5069456;28;20068;-69
2022/08/01 05:18:09;;;;;;;0.75;0.50;;;;;;;;;;5069957;28;20359;-69
2022/08/01 05:20:37;;;;;;;1.35;0.43;;;;;;;;;;5072747;28;20089;-69
2022/08/01 05:23:06;;;;;;;0.57;0.50;;;;;;;;;;5074534;28;20051;-68
2022/08/01 05:25:39;;;;;;;0.82;0.50;;;;;;;;;;5076650;28;20048;-70
2022/08/01 05:28:27;;;;;;;0.50;0.40;;;;;;;;;;5073220;28;20491;-71
2022/08/01 05:30:56;;;;;;;0.60;0.50;;;;;;;;;;5068697;28;20415;-68
2022/08/01 05:33:24;;;;;;;0.57;0.57;;;;;;;;;;5071616;28;20362;-71
2022/08/01 05:35:53;;;;;;;0.82;0.70;;;;;;;;;;5072777;28;20044;-69
2022/08/01 05:38:21;;;;;;;0.57;0.57;;;;;;;;;;5072784;28;20040;-71
2022/08/01 05:40:49;;;;;;;0.60;0.40;;;;;;;;;;5077785;28;20055;-69
2022/08/01 05:43:18;;;;;;;0.63;0.60;;;;;;;;;;5068170;28;20121;-69
2022/08/01 05:45:48;;;;;;;1.70;0.32;;;;;;;;;;5068271;28;20465;-68
2022/08/01 05:48:16;;;;;;;0.65;0.50;;;;;;;;;;5080300;28;20576;-70
2022/08/01 05:50:45;;;;;;;14.80;5.03;;;;;;;;;;5071881;28;20055;-70
2022/08/01 05:53:14;;;;;;;2.42;1.10;;;;;;;;;;5071365;28;20087;-69
2022/08/01 05:55:42;;;;;;;0.60;0.60;;;;;;;;;;5076125;28;20486;-69
2022/08/01 05:58:11;;;;;;;0.57;0.55;;;;;;;;;;5066602;28;20120;-68
2022/08/01 06:00:40;;;;;;;1.55;0.82;;;;;;;;;;5065869;28;20463;-69
2022/08/01 06:03:11;;;;;;;0.93;0.17;;;;;;;;;;5079230;28;20446;-69
2022/08/01 06:05:39;;;;;;;1.67;0.60;;;;;;;;;;5063115;28;20527;-68
2022/08/01 06:08:08;;;;;;;1.15;0.60;;;;;;;;;;5061656;28;20048;-69
2022/08/01 06:10:36;;;;;;;0.32;0.32;;;;;;;;;;5062017;28;20064;-70
2022/08/01 06:13:05;;;;;;;1.13;0.50;;;;;;;;;;5057992;28;20045;-69
2022/08/01 06:15:33;;;;;;;0.70;0.68;;;;;;;;;;5056519;28;20131;-70
2022/08/01 06:18:02;;;;;;;0.70;0.43;;;;;;;;;;5060878;28;20075;-69
2022/08/01 06:20:32;;;;;;;1.08;0.65;;;;;;;;;;5056209;28;20098;-69
2022/08/01 06:23:00;;;;;;;2.75;0.90;;;;;;;;;;5057134;28;20049;-70
2022/08/01 06:25:39;;;;;;;0.30;0.30;;;;;;;;;;5061248;28;20094;-72
2022/08/01 06:28:07;;;;;;;0.77;0.75;;;;;;;;;;5057554;28;20052;-69
2022/08/01 06:30:36;;;;;;;0.30;0.30;;;;;;;;;;5060306;28;20134;-70
2022/08/01 06:33:05;;;;;;;1.25;0.85;;;;;;;;;;5053640;28;20416;-69
2022/08/01 06:35:35;;;;;;;0.40;0.30;;;;;;;;;;5061677;28;20345;-70
2022/08/01 06:38:04;;;;;;;0.50;0.47;;;;;;;;;;5071267;28;20059;-71
2022/08/01 06:40:32;;;;;;;0.28;0.28;;;;;;;;;;5076526;28;20143;-70
2022/08/01 06:43:03;;;;;;;0.45;0.40;;;;;;;;;;5081173;28;20120;-69
2022/08/01 06:45:32;;;;;;;1.13;0.50;;;;;;;;;;5075829;28;20679;-69
2022/08/01 06:48:00;;;;;;;0.50;0.47;;;;;;;;;;5066723;28;20145;-70
2022/08/01 06:50:29;;;;;;;0.43;0.43;;;;;;;;;;5068142;28;20063;-70
2022/08/01 06:52:59;;;;;;;0.80;0.50;;;;;;;;;;5064140;28;20144;-70
2022/08/01 06:55:28;;;;;;;0.57;0.57;;;;;;;;;;5065306;28;20129;-70
2022/08/01 06:57:56;;;;;;;0.80;0.63;;;;;;;;;;5057055;28;20048;-70
2022/08/01 07:00:26;;;;;;;1.08;0.57;;;;;;;;;;5058455;28;20480;-72
2022/08/01 07:02:56;;;;;;;0.80;0.47;;;;;;;;;;5058994;28;20049;-71
2022/08/01 07:05:25;;;;;;;2.03;0.75;;;;;;;;;;5060386;28;20501;-71
2022/08/01 07:07:53;;;;;;;8.38;0.73;;;;;;;;;;5083831;28;20063;-70
2022/08/01 07:10:23;;;;;;;0.47;0.47;;;;;;;;;;5080835;28;20048;-71
2022/08/01 07:12:52;;;;;;;0.90;0.60;;;;;;;;;;5085038;28;20129;-71
2022/08/01 07:15:26;;;;;;;1.55;0.45;;;;;;;;;;5080216;28;20131;-70
2022/08/01 07:17:56;;;;;;;1.27;0.70;;;;;;;;;;5084884;28;20048;-70
2022/08/01 07:20:24;;;;;;;0.40;0.40;;;;;;;;;;5079598;28;20056;-71
2022/08/01 07:22:53;;;;;;;1.23;0.50;;;;;;;;;;5083648;28;20063;-69
2022/08/01 07:25:25;;;;;;;0.80;0.52;;;;;;;;;;5081855;28;20044;-69
2022/08/01 07:27:54;;;;;;;0.93;0.65;;;;;;;;;;5077585;28;20040;-75
2022/08/01 07:30:22;;;;;;;0.40;0.40;;;;;;;;;;5059174;28;20197;-73
2022/08/01 07:32:51;;;;;;;0.30;0.30;;;;;;;;;;5075248;28;20487;-70
2022/08/01 07:35:19;;;;;;;0.88;0.63;;;;;;;;;;5077180;28;20841;-72
2022/08/01 07:37:48;;;;;;;0.80;0.70;;;;;;;;;;5076192;28;20048;-72
2022/08/01 07:40:17;;;;;;;1.27;0.75;;;;;;;;;;5081963;28;20055;-72
2022/08/01 07:42:48;;;;;;;1.27;0.82;;;;;;;;;;5072551;28;20135;-71
2022/08/01 07:45:16;;;;;;;1.17;0.93;;;;;;;;;;5072523;28;20098;-72
2022/08/01 07:47:46;;;;;;;2.05;0.43;;;;;;;;;;5060127;28;20083;-73
2022/08/01 07:50:15;;;;;;;0.95;0.70;;;;;;;;;;5057982;28;20176;-74
2022/08/01 07:52:43;;;;;;;1.17;0.95;;;;;;;;;;5060392;28;20076;-70
2022/08/01 07:55:12;;;;;;;1.85;0.63;;;;;;;;;;5060158;28;20110;-71
2022/08/01 07:57:44;;;;;;;1.08;0.80;;;;;;;;;;5064968;28;20135;-71
2022/08/01 08:00:15;;;;;;;1.08;0.63;;;;;;;;;;5064133;28;20506;-75
2022/08/01 08:02:43;;;;;;;0.85;0.50;;;;;;;;;;5059974;28;20051;-73
2022/08/01 08:05:12;;;;;;;1.02;0.60;;;;;;;;;;5060714;28;20072;-73
2022/08/01 08:07:41;;;;;;;1.38;0.60;;;;;;;;;;5058839;28;20045;-70
2022/08/01 08:10:10;;;;;;;0.90;0.57;;;;;;;;;;5066781;28;20044;-71
2022/08/01 08:12:38;;;;;;;1.35;0.70;;;;;;;;;;5057967;28;20492;-71
2022/08/01 08:15:07;;;;;;;0.98;0.68;;;;;;;;;;5055574;28;20303;-72
2022/08/01 08:17:37;;;;;;;0.88;0.73;;;;;;;;;;5080210;28;20056;-71
2022/08/01 08:20:07;;;;;;;2.92;0.90;;;;;;;;;;5083733;28;20547;-74
2022/08/01 08:22:37;;;;;;;0.68;0.50;;;;;;;;;;5083338;28;20054;-74
2022/08/01 08:25:06;;;;;;;0.80;0.70;;;;;;;;;;5081593;28;20471;-72
2022/08/01 08:27:35;;;;;;;0.50;0.50;;;;;;;;;;5054449;28;20049;-72
2022/08/01 08:30:07;;;;;;;1.17;0.43;;;;;;;;;;5054188;28;20076;-74
2022/08/01 08:32:35;;;;;;;0.75;0.68;;;;;;;;;;5060021;28;20181;-74
2022/08/01 08:35:05;;;;;;;1.08;0.68;;;;;;;;;;5064200;28;20538;-72
2022/08/01 08:37:35;;;;;;;0.57;0.52;;;;;;;;;;5064304;28;20044;-70
2022/08/01 08:40:10;;;;;;;1.35;0.70;;;;;;;;;;5061568;28;20048;-70
2022/08/01 08:42:41;;;;;;;0.70;0.60;;;;;;;;;;5059217;28;20048;-70
2022/08/01 08:45:10;;;;;;;1.13;0.73;;;;;;;;;;5065022;28;20045;-70
2022/08/01 08:47:39;;;;;;;1.08;0.70;;;;;;;;;;5076218;28;20112;-71
2022/08/01 08:50:10;;;;;;;0.38;0.28;;;;;;;;;;5073171;28;20053;-70
2022/08/01 08:52:40;;;;;;;0.93;0.65;;;;;;;;;;5069769;28;20652;-70
2022/08/01 08:55:10;;;;;;;1.38;0.77;;;;;;;;;;5082319;28;20083;-75
2022/08/01 08:57:41;;;;;;;0.65;0.52;;;;;;;;;;5076795;28;20056;-70
2022/08/01 09:00:11;;;;;;;0.57;0.40;;;;;;;;;;5079076;28;20047;-70
2022/08/01 09:02:42;;;;;;;1.20;0.50;;;;;;;;;;5075175;28;20040;-70
2022/08/01 09:05:12;;;;;;;0.57;0.52;;;;;;;;;;5073369;28;20090;-73
2022/08/01 09:07:47;;;;;;;0.68;0.68;;;;;;;;;;5075551;28;20102;-69
2022/08/01 09:10:16;;;;;;;1.08;0.80;;;;;;;;;;5078933;28;20044;-71
2022/08/01 09:12:59;;;;;;;0.73;0.63;;;;;;;;;;5070905;28;20052;-70
2022/08/01 09:15:39;;;;;;;1.17;0.70;;;;;;;;;;5073108;28;20052;-72
2022/08/01 09:18:07;;;;;;;0.50;0.50;;;;;;;;;;5066194;28;20135;-70
2022/08/01 09:20:37;;;;;;;0.40;0.40;;;;;;;;;;5066319;28;20076;-71
2022/08/01 09:23:06;;;;;;;0.85;0.65;;;;;;;;;;5063211;28;20128;-71
2022/08/01 09:25:52;;;;;;;1.20;0.85;;;;;;;;;;5066013;28;20487;-70
2022/08/01 09:28:29;;;;;;;1.17;0.70;;;;;;;;;;5072968;28;20420;-70
2022/08/01 09:30:58;;;;;;;3.63;1.27;;;;;;;;;;5074131;28;20068;-72
2022/08/01 09:33:26;;;;;;;1.48;0.50;;;;;;;;;;5072525;28;20655;-71
2022/08/01 09:35:58;;;;;;;0.90;0.57;;;;;;;;;;5071103;28;20491;-71
2022/08/01 09:38:27;;;;;;;1.05;0.50;;;;;;;;;;5075078;28;20518;-70
2022/08/01 09:40:58;;;;;;;0.40;0.32;;;;;;;;;;5074786;28;20056;-71
2022/08/01 09:43:27;;;;;;;3.33;0.70;;;;;;;;;;5071798;28;20512;-71
2022/08/01 09:45:56;;;;;;;0.30;0.30;;;;;;;;;;5075244;28;20125;-70
2022/08/01 09:48:26;;;;;;;1.13;0.68;;;;;;;;;;5075256;28;20036;-70
2022/08/01 09:50:58;;;;;;;0.52;0.52;;;;;;;;;;5080252;28;20059;-69
2022/08/01 09:53:42;;;;;;;1.08;0.63;;;;;;;;;;5074889;28;20086;-72
2022/08/01 09:56:18;;;;;;;0.77;0.70;;;;;;;;;;5072966;28;20133;-72
2022/08/01 09:58:51;;;;;;;1.10;0.52;;;;;;;;;;5057113;28;20060;-73
2022/08/01 10:01:26;;;;;;;5.47;0.75;;;;;;;;;;5062626;28;20048;-70
2022/08/01 10:04:10;;;;;;;0.77;0.55;;;;;;;;;;5061714;28;20048;-73
2022/08/01 10:06:42;;;;;;;0.60;0.50;;;;;;;;;;5072230;28;20109;-72
2022/08/01 10:09:11;;;;;;;0.90;0.63;;;;;;;;;;5082001;28;20055;-71
2022/08/01 10:11:42;;;;;;;0.45;0.40;;;;;;;;;;5075838;28;20048;-69
2022/08/01 10:14:14;;;;;;;0.65;0.57;;;;;;;;;;5074279;28;20518;-71
2022/08/01 10:16:46;;;;;;;0.47;0.40;;;;;;;;;;5077258;28;20044;-73
2022/08/01 10:19:23;;;;;;;0.57;0.40;;;;;;;;;;5082770;28;20047;-72
2022/08/01 10:21:58;;;;;;;0.63;0.60;;;;;;;;;;5087923;28;20040;-71
2022/08/01 10:24:29;;;;;;;1.20;0.50;;;;;;;;;;5080340;28;20049;-72
2022/08/01 10:27:02;;;;;;;0.60;0.40;;;;;;;;;;5060235;28;20509;-70
2022/08/01 10:29:37;;;;;;;0.60;0.40;;;;;;;;;;5053986;28;20045;-71
2022/08/01 10:32:25;;;;;;;0.28;0.28;;;;;;;;;;5055234;28;20115;-71
2022/08/01 10:34:56;;;;;;;0.30;0.30;;;;;;;;;;5063474;28;20066;-70
2022/08/01 10:37:27;;;;;;;0.52;0.52;;;;;;;;;;5058272;28;20037;-69
2022/08/01 10:39:56;;;;;;;0.60;0.30;;;;;;;;;;5053127;28;20127;-71
2022/08/01 10:42:45;;;;;;;0.63;0.45;;;;;;;;;;5050372;28;20044;-68
2022/08/01 10:45:14;;;;;;;0.65;0.50;;;;;;;;;;5058185;28;20409;-70
2022/08/01 10:47:47;;;;;;;2.90;0.40;;;;;;;;;;5053328;28;20077;-73
2022/08/01 10:50:23;;;;;;;0.22;0.22;;;;;;;;;;5067940;28;20052;-71
2022/08/01 10:53:09;;;;;;;0.40;0.30;;;;;;;;;;5053911;28;20056;-72
2022/08/01 10:55:50;;;;;;;1.20;0.50;;;;;;;;;;5064351;28;20127;-72
2022/08/01 10:58:23;;;;;;;0.35;0.32;;;;;;;;;;5056024;28;20161;-70
2022/08/01 11:01:07;;;;;;;1.13;0.45;;;;;;;;;;5056947;28;20586;-69
2022/08/01 11:03:36;;;;;;;0.70;0.47;;;;;;;;;;5059987;28;20052;-72
2022/08/01 11:06:26;;;;;;;0.50;0.40;;;;;;;;;;5050061;28;20511;-70
2022/08/01 11:08:58;;;;;;;1.45;0.32;;;;;;;;;;5060992;28;20080;-70
2022/08/01 11:11:28;;;;;;;0.77;0.50;;;;;;;;;;5068610;28;20113;-70
2022/08/01 11:14:06;;;;;;;1.13;0.60;;;;;;;;;;5062390;28;20040;-71
2022/08/01 11:16:37;;;;;;;0.47;0.25;;;;;;;;;;5073658;28;20058;-74
2022/08/01 11:19:08;;;;;;;0.73;0.73;;;;;;;;;;5079231;28;20044;-71
2022/08/01 11:21:55;;;;;;;1.83;0.47;;;;;;;;;;5083344;28;20075;-72
2022/08/01 11:24:47;;;;;;;0.57;0.40;;;;;;;;;;5078793;28;20097;-72
2022/08/01 11:27:20;;;;;;;0.50;0.40;;;;;;;;;;5087811;28;20150;-70
2022/08/01 11:30:05;;;;;;;0.28;0.28;;;;;;;;;;5084978;28;20301;-71
2022/08/01 11:32:35;;;;;;;1.35;0.40;;;;;;;;;;5086944;28;20043;-72
2022/08/01 11:35:26;;;;;;;0.70;0.30;;;;;;;;;;5085114;28;20467;-72
2022/08/01 11:37:56;;;;;;;0.43;0.30;;;;;;;;;;5087027;28;20047;-70
2022/08/01 11:40:26;;;;;;;1.17;0.65;;;;;;;;;;5072944;28;20400;-74
2022/08/01 11:43:09;;;;;;;0.30;0.30;;;;;;;;;;5077863;28;20052;-69
2022/08/01 11:45:51;;;;;;;1.00;0.40;;;;;;;;;;5077911;28;20040;-72
2022/08/01 11:48:22;;;;;;;0.40;0.30;;;;;;;;;;5077217;28;20044;-70
2022/08/01 11:50:56;;;;;;;1.17;0.50;;;;;;;;;;5075004;28;20072;-71
2022/08/01 11:53:24;;;;;;;0.20;0.20;;;;;;;;;;5086972;28;20075;-73
2022/08/01 11:55:54;;;;;;;1.92;0.30;;;;;;;;;;5073670;28;20044;-71
2022/08/01 11:58:23;;;;;;;1.98;0.70;;;;;;;;;;5076094;28;20105;-72
2022/08/01 12:01:00;;;;;;;0.30;0.20;;;;;;;;;;5081006;28;20052;-69
2022/08/01 12:03:32;;;;;;;2.25;0.40;;;;;;;;;;5086047;28;20072;-70
2022/08/01 12:06:04;;;;;;;0.13;0.10;;;;;;;;;;5079544;28;20036;-71
2022/08/01 12:08:34;;;;;;;0.22;0.22;;;;;;;;;;5079847;28;20049;-70
2022/08/01 12:11:05;;;;;;;1.00;0.50;;;;;;;;;;5083500;28;20048;-69
2022/08/01 12:13:41;;;;;;;0.32;0.30;;;;;;;;;;5080320;28;20143;-73
2022/08/01 12:16:11;;;;;;;0.80;0.25;;;;;;;;;;5084621;28;20040;-70
2022/08/01 12:18:40;;;;;;;1.08;0.40;;;;;;;;;;5083328;28;20051;-69
2022/08/01 12:21:08;;;;;;;0.10;0.10;;;;;;;;;;5087022;28;20071;-73
2022/08/01 12:23:37;;;;;;;1.75;0.65;;;;;;;;;;5088195;28;20044;-72
2022/08/01 12:26:06;;;;;;;0.20;0.20;;;;;;;;;;5085347;28;21584;-72
2022/08/01 12:28:40;;;;;;;0.40;0.30;;;;;;;;;;5083964;28;20123;-70
2022/08/01 12:31:08;;;;;;;0.30;0.22;;;;;;;;;;5082173;28;20106;-72
2022/08/01 12:33:41;;;;;;;0.60;0.28;;;;;;;;;;5087545;28;20407;-70
2022/08/01 12:36:13;;;;;;;1.02;0.28;;;;;;;;;;5083562;28;20139;-70
2022/08/01 12:38:42;;;;;;;0.30;0.30;;;;;;;;;;5080607;28;20381;-70
2022/08/01 12:41:12;;;;;;;1.45;0.43;;;;;;;;;;5086706;28;20510;-71
2022/08/01 12:43:41;;;;;;;0.30;0.30;;;;;;;;;;5083675;28;20644;-72
2022/08/01 12:46:15;;;;;;;0.52;0.32;;;;;;;;;;5081009;28;20193;-71
2022/08/01 12:48:46;;;;;;;0.50;0.30;;;;;;;;;;5088972;28;20055;-70
2022/08/01 12:51:14;;;;;;;0.55;0.45;;;;;;;;;;5080141;28;20086;-73
2022/08/01 12:53:43;;;;;;;0.40;0.20;;;;;;;;;;5084091;28;20097;-74
2022/08/01 12:56:11;;;;;;;0.10;0.10;;;;;;;;;;5079075;28;20499;-70
2022/08/01 12:58:40;;;;;;;0.30;0.30;;;;;;;;;;5083493;28;20129;-69
2022/08/01 13:01:09;;;;;;;0.20;0.10;;;;;;;;;;5089892;28;20427;-73
2022/08/01 13:03:39;;;;;;;0.10;0.10;;;;;;;;;;5086910;28;20062;-71
2022/08/01 13:06:16;;;;;;;0.70;0.45;;;;;;;;;;5089224;28;20055;-72
2022/08/01 13:08:45;;;;;;;1.38;0.43;;;;;;;;;;5085215;28;20468;-71
2022/08/01 13:11:15;;;;;;;0.40;0.40;;;;;;;;;;5081045;28;20059;-71
2022/08/01 13:13:47;;;;;;;0.57;0.30;;;;;;;;;;5085720;28;20040;-71
2022/08/01 13:16:17;;;;;;;0.63;0.40;;;;;;;;;;5086784;28;20162;-71
2022/08/01 13:19:01;;;;;;;1.45;0.40;;;;;;;;;;5079007;28;20051;-70
2022/08/01 13:21:32;;;;;;;0.52;0.22;;;;;;;;;;5087012;28;20040;-71
2022/08/01 13:24:25;;;;;;;0.65;0.40;;;;;;;;;;5079444;28;20040;-69
2022/08/01 13:26:56;;;;;;;0.28;0.28;;;;;;;;;;5089134;28;20050;-73
2022/08/01 13:29:30;;;;;;;0.10;0.10;;;;;;;;;;5086646;28;20078;-73
2022/08/01 13:31:59;;;;;;;0.45;0.35;;;;;;;;;;5085027;28;20048;-72
2022/08/01 13:34:31;;;;;;;0.25;0.20;;;;;;;;;;5086008;28;20055;-70
2022/08/01 13:37:01;;;;;;;0.20;0.20;;;;;;;;;;5088472;28;20131;-72
2022/08/01 13:39:43;;;;;;;0.20;0.20;;;;;;;;;;5084610;28;20097;-70
2022/08/01 13:42:13;;;;;;;1.58;0.40;;;;;;;;;;5078447;28;20462;-72
2022/08/01 13:44:46;;;;;;;0.22;0.17;;;;;;;;;;5088861;28;20040;-73
2022/08/01 13:47:15;;;;;;;0.43;0.30;;;;;;;;;;5082689;28;20055;-70
2022/08/01 13:49:44;;;;;;;0.40;0.20;;;;;;;;;;5079057;28;20134;-73
2022/08/01 13:52:14;;;;;;;0.65;0.30;;;;;;;;;;5083622;28;20040;-70
2022/08/01 13:54:43;;;;;;;3.00;0.35;;;;;;;;;;5079053;28;20044;-71
2022/08/01 13:57:11;;;;;;;0.80;0.20;;;;;;;;;;5086467;28;20048;-70
2022/08/01 13:59:39;;;;;;;0.35;0.20;;;;;;;;;;5081766;28;20044;-69
2022/08/01 14:02:08;;;;;;;0.30;0.00;;;;;;;;;;5082782;28;20040;-72
2022/08/01 14:04:37;;;;;;;0.38;0.15;;;;;;;;;;5085866;28;20051;-70
2022/08/01 14:07:05;;;;;;;0.25;0.20;;;;;;;;;;5077951;28;20139;-70
2022/08/01 14:09:43;;;;;;;0.52;0.43;;;;;;;;;;5082528;28;20040;-70
2022/08/01 14:12:25;;;;;;;2.30;0.22;;;;;;;;;;5087784;28;20067;-72
2022/08/01 14:14:53;;;;;;;0.10;0.08;;;;;;;;;;5089548;28;20047;-71
2022/08/01 14:17:22;;;;;;;0.20;0.20;;;;;;;;;;5082020;28;20118;-72
2022/08/01 14:19:51;;;;;;;0.28;0.28;;;;;;;;;;5085768;28;20055;-69
2022/08/01 14:22:19;;;;;;;0.52;0.30;;;;;;;;;;5085621;28;20086;-71
2022/08/01 14:24:49;;;;;;;0.57;0.32;;;;;;;;;;5083119;28;20052;-70
2022/08/01 14:27:18;;;;;;;0.10;0.10;;;;;;;;;;5081827;28;20041;-71
2022/08/01 14:29:47;;;;;;;0.25;0.20;;;;;;;;;;5078206;28;20419;-72
2022/08/01 14:32:32;;;;;;;0.47;0.40;;;;;;;;;;5085898;28;20048;-70
2022/08/01 14:35:01;;;;;;;0.20;0.10;;;;;;;;;;5085414;28;20051;-69
2022/08/01 14:37:30;;;;;;;0.30;0.30;;;;;;;;;;5086879;28;20047;-71
2022/08/01 14:40:09;;;;;;;0.40;0.30;;;;;;;;;;5081771;28;20055;-72
2022/08/01 14:42:38;;;;;;;0.30;0.20;;;;;;;;;;5083597;28;20040;-69
2022/08/01 14:45:09;;;;;;;0.82;0.40;;;;;;;;;;5087118;28;20156;-70
2022/08/01 14:47:37;;;;;;;0.50;0.28;;;;;;;;;;5078595;28;20052;-70
2022/08/01 14:50:08;;;;;;;0.40;0.22;;;;;;;;;;5078320;28;20043;-69
2022/08/01 14:52:37;;;;;;;0.85;0.50;;;;;;;;;;5082593;28;20060;-70
2022/08/01 14:55:08;;;;;;;0.55;0.30;;;;;;;;;;5084095;28;20048;-69
2022/08/01 14:57:37;;;;;;;0.30;0.30;;;;;;;;;;5072459;28;20102;-71
2022/08/01 15:00:08;;;;;;;0.93;0.38;;;;;;;;;;5079239;28;20133;-69
2022/08/01 15:02:37;;;;;;;0.40;0.38;;;;;;;;;;5083903;28;20056;-69
2022/08/01 15:05:05;;;;;;;0.55;0.30;;;;;;;;;;5080535;28;20040;-70
2022/08/01 15:07:34;;;;;;;0.40;0.40;;;;;;;;;;5083438;28;20057;-69